Time;durP1;ratioP1;P1;durP2;ratioP2;P2;SDS_P1;SDS_P2;PMS_P1;PMS_P2;Temp;Humidity;BMP_temperature;BMP_pressure;BME280_temperature;BME280_humidity;BME280_pressure;Samples;Min_cycle;Max_cycle;Signal;HPM_P1;HPM_P2
2021/07/12 00:00:52;;;;;;;11.13;7.73;;;;;;;25.40;48.72;99346.32;369890;107;1962003;-76
2021/07/12 00:02:16;;;;;;;10.79;7.05;;;;;;;25.38;48.86;99342.23;326221;107;2648023;-74
2021/07/12 00:03:28;;;;;;;9.10;6.97;;;;;;;25.45;48.58;99337.87;386833;106;1961913;-73
2021/07/12 00:04:34;;;;;;;10.69;7.57;;;;;;;25.34;48.78;99344.78;370015;106;1968966;-73
2021/07/12 00:05:47;;;;;;;10.06;7.80;;;;;;;25.51;48.82;99341.37;393254;104;2076918;-73
2021/07/12 00:06:54;;;;;;;10.24;7.85;;;;;;;25.46;48.44;99338.72;341900;107;2055993;-72
2021/07/12 00:08:18;;;;;;;10.99;7.37;;;;;;;25.47;48.34;99334.81;373149;107;1962007;-72
2021/07/12 00:09:30;;;;;;;10.30;8.23;;;;;;;25.61;48.04;99335.56;393499;103;1962033;-73
2021/07/12 00:10:37;;;;;;;10.91;8.51;;;;;;;25.53;48.21;99338.27;369124;107;1970013;-73
2021/07/12 00:11:50;;;;;;;12.56;7.07;;;;;;;25.72;48.32;99333.39;386247;106;1986976;-72
2021/07/12 00:12:56;;;;;;;9.61;7.84;;;;;;;25.68;48.08;99335.14;364587;109;1962068;-74
2021/07/12 00:14:03;;;;;;;10.97;8.19;;;;;;;25.72;47.81;99332.55;329879;110;2089853;-73
2021/07/12 00:15:10;;;;;;;13.88;7.98;;;;;;;25.81;47.70;99334.25;363064;110;1961935;-73
2021/07/12 00:16:42;;;;;;;11.59;7.75;;;;;;;25.97;47.68;99331.13;405127;99;2855053;-73
2021/07/12 00:17:49;;;;;;;12.50;7.04;;;;;;;25.92;47.54;99328.49;377417;101;2854971;-72
2021/07/12 00:18:54;;;;;;;8.64;7.11;;;;;;;25.95;47.28;99327.86;394025;101;1963887;-73
2021/07/12 00:20:08;;;;;;;9.39;6.97;;;;;;;26.07;46.64;99325.33;384327;106;1987047;-79
2021/07/12 00:21:14;;;;;;;9.44;7.62;;;;;;;25.98;47.16;99329.98;365039;109;1964070;-80
2021/07/12 00:22:32;;;;;;;9.58;7.09;;;;;;;26.14;46.88;99333.98;386408;106;1984895;-73
2021/07/12 00:23:37;;;;;;;9.51;6.84;;;;;;;26.02;47.15;99331.81;368271;107;1960824;-74
2021/07/12 00:25:02;;;;;;;10.04;7.46;;;;;;;25.99;46.61;99334.41;367904;107;1960997;-73
2021/07/12 00:26:14;;;;;;;10.77;7.58;;;;;;;26.04;46.80;99328.73;394788;104;1986856;-72
2021/07/12 00:27:19;;;;;;;8.97;7.15;;;;;;;25.87;46.97;99326.67;372655;107;1961970;-74
2021/07/12 00:28:24;;;;;;;9.37;7.66;;;;;;;25.82;46.92;99327.58;374073;107;1961901;-74
2021/07/12 00:29:36;;;;;;;8.84;7.32;;;;;;;25.95;47.26;99331.44;399098;104;1985997;-73
2021/07/12 00:30:42;;;;;;;10.84;7.36;;;;;;;25.87;46.86;99332.20;373979;106;1962002;-72
2021/07/12 00:31:54;;;;;;;9.33;7.11;;;;;;;25.95;46.80;99331.44;369760;106;2848023;-73
2021/07/12 00:33:01;;;;;;;10.23;6.84;;;;;;;25.82;46.97;99333.11;325883;107;2790986;-72
2021/07/12 00:34:13;;;;;;;10.34;7.44;;;;;;;25.98;47.20;99322.50;397214;103;1989040;-73
2021/07/12 00:35:18;;;;;;;10.02;7.02;;;;;;;25.90;47.36;99326.03;375638;105;1964056;-74
2021/07/12 00:36:43;;;;;;;8.97;6.70;;;;;;;25.87;47.18;99332.20;373438;107;1961997;-74
2021/07/12 00:37:48;;;;;;;9.27;7.47;;;;;;;25.87;47.17;99333.02;375672;106;1964983;-73
2021/07/12 00:39:00;;;;;;;10.79;7.58;;;;;;;25.99;47.05;99323.34;407366;99;1986964;-72
2021/07/12 00:40:09;;;;;;;9.61;7.27;;;;;;;25.90;47.07;99326.03;386106;102;1961960;-74
2021/07/12 00:41:21;;;;;;;8.79;6.90;;;;;;;26.03;46.92;99325.13;394190;103;1986023;-73
2021/07/12 00:42:27;;;;;;;12.72;7.18;;;;;;;25.94;46.86;99320.70;375353;107;1961976;-73
2021/07/12 00:43:35;;;;;;;10.21;7.61;;;;;;;25.97;47.02;99322.83;364839;108;1961970;-73
2021/07/12 00:44:46;;;;;;;9.41;6.87;;;;;;;26.11;46.80;99320.78;393786;104;1985982;-73
2021/07/12 00:45:52;;;;;;;10.98;7.21;;;;;;;25.98;46.77;99318.91;370248;108;1963004;-74
2021/07/12 00:47:06;;;;;;;9.44;6.95;;;;;;;26.07;45.92;99319.80;374064;109;1962022;-72
2021/07/12 00:48:12;;;;;;;9.28;7.01;;;;;;;25.95;46.64;99319.55;307125;113;2256800;-73
2021/07/12 00:49:36;;;;;;;9.52;7.01;;;;;;;25.96;46.17;99318.41;358852;111;1963033;-74
2021/07/12 00:50:48;;;;;;;9.21;6.62;;;;;;;26.03;46.19;99319.59;380868;104;1962046;-73
2021/07/12 00:51:54;;;;;;;8.68;6.89;;;;;;;25.90;46.51;99316.91;349812;107;1970973;-74
2021/07/12 00:53:09;;;;;;;10.33;7.16;;;;;;;26.04;46.65;99317.67;392948;104;1965056;-73
2021/07/12 00:54:15;;;;;;;8.65;6.65;;;;;;;25.96;46.41;99316.48;327842;106;2584039;-74
2021/07/12 00:55:32;;;;;;;8.98;6.88;;;;;;;26.08;46.60;99324.19;384675;106;1987028;-72
2021/07/12 00:56:40;;;;;;;10.80;7.31;;;;;;;25.99;46.34;99313.08;358831;108;2855933;-73
2021/07/12 00:58:08;;;;;;;7.78;6.48;;;;;;;25.98;46.14;99318.91;364674;109;1961947;-73
2021/07/12 00:59:14;;;;;;;8.46;6.53;;;;;;;25.96;45.89;99313.72;366248;108;1965056;-73
2021/07/12 01:00:50;;;;;;;10.66;6.66;;;;;;;25.98;46.13;99308.66;413382;99;1985956;-73
2021/07/12 01:01:55;;;;;;;9.56;6.71;;;;;;;25.84;46.19;99316.23;393255;101;1961985;-71
2021/07/12 01:03:09;;;;;;;11.14;7.06;;;;;;;25.93;46.33;99306.02;384569;104;2897996;-72
2021/07/12 01:04:17;;;;;;;10.45;7.37;;;;;;;25.84;46.72;99310.70;374943;107;1968956;-74
2021/07/12 01:05:24;;;;;;;9.01;7.06;;;;;;;25.87;46.71;99310.88;371159;106;1963080;-73
2021/07/12 01:06:31;;;;;;;11.21;7.51;;;;;;;25.91;46.62;99310.23;368583;107;1961961;-73
2021/07/12 01:07:44;;;;;;;9.51;6.89;;;;;;;26.06;46.64;99307.88;396741;104;1987028;-72
2021/07/12 01:08:50;;;;;;;9.76;6.82;;;;;;;25.98;46.61;99305.08;378721;105;1963051;-73
2021/07/12 01:10:04;;;;;;;10.17;6.95;;;;;;;26.12;46.69;99307.75;385269;106;2071053;-72
2021/07/12 01:11:25;;;;;;;9.96;6.81;;;;;;;26.01;46.77;99307.20;363484;110;1969071;-72
2021/07/12 01:12:56;;;;;;;8.95;7.04;;;;;;;26.10;46.49;99308.09;393669;104;1986028;-73
2021/07/12 01:14:40;;;;;;;10.58;7.81;;;;;;;25.97;46.54;99306.22;375621;107;1963065;-72
2021/07/12 01:15:55;;;;;;;10.44;7.45;;;;;;;25.97;47.11;99303.45;352684;108;1961989;-74
2021/07/12 01:17:20;;;;;;;8.81;6.63;;;;;;;26.01;47.01;99305.28;392431;104;1987086;-73
2021/07/12 01:18:32;;;;;;;8.94;6.81;;;;;;;25.88;46.40;99308.95;310584;107;2367042;-74
2021/07/12 01:20:22;;;;;;;11.80;7.13;;;;;;;25.84;46.15;99307.94;375245;105;1961993;-72
2021/07/12 01:21:42;;;;;;;11.15;7.79;;;;;;;25.88;47.50;99303.41;387543;106;1987013;-72
2021/07/12 01:23:11;;;;;;;10.59;7.21;;;;;;;25.78;46.95;99309.17;310795;108;2323965;-73
2021/07/12 01:24:42;;;;;;;12.24;7.61;;;;;;;25.81;47.74;99306.58;382774;103;1986029;-73
2021/07/12 01:26:19;;;;;;;10.89;7.52;;;;;;;25.69;47.32;99309.09;331843;108;2857966;-73
2021/07/12 01:27:59;;;;;;;12.83;8.08;;;;;;;25.69;47.83;99303.56;369589;108;1961995;-73
2021/07/12 01:29:31;;;;;;;10.30;7.69;;;;;;;25.79;47.89;99308.84;372680;110;1986943;-72
2021/07/12 01:31:10;;;;;;;10.53;7.58;;;;;;;25.66;48.06;99310.55;352992;111;1962102;-73
2021/07/12 01:32:56;;;;;;;10.53;7.41;;;;;;;25.78;48.40;99306.41;386396;105;1986958;-72
2021/07/12 01:34:09;;;;;;;9.53;7.08;;;;;;;25.67;48.33;99305.85;357817;108;1963865;-71
2021/07/12 01:35:46;;;;;;;9.45;7.52;;;;;;;25.76;48.40;99305.91;395215;104;1986032;-72
2021/07/12 01:37:02;;;;;;;9.81;6.81;;;;;;;25.65;48.28;99308.11;364310;109;1962039;-74
2021/07/12 01:38:27;;;;;;;10.46;7.56;;;;;;;25.75;48.50;99313.39;397512;101;2072915;-73
2021/07/12 01:40:05;;;;;;;10.58;8.18;;;;;;;25.62;48.52;99306.79;380939;104;1969047;-73
2021/07/12 01:41:29;;;;;;;10.82;7.68;;;;;;;25.68;47.71;99314.96;404177;101;1985978;-74
2021/07/12 01:42:54;;;;;;;9.46;7.71;;;;;;;25.63;48.37;99315.90;397648;104;1986000;-73
2021/07/12 01:44:07;;;;;;;10.01;7.84;;;;;;;25.53;48.51;99316.14;379326;105;1962018;-73
2021/07/12 01:45:29;;;;;;;9.34;7.11;;;;;;;25.65;48.42;99316.41;395158;104;1986005;-72
2021/07/12 01:46:51;;;;;;;8.95;7.49;;;;;;;25.53;48.09;99325.25;376777;106;1962927;-73
2021/07/12 01:48:19;;;;;;;10.47;7.21;;;;;;;25.52;48.34;99329.16;376381;106;1963988;-72
2021/07/12 01:50:06;;;;;;;10.22;7.73;;;;;;;25.62;48.36;99328.11;392726;104;1986923;-72
2021/07/12 01:51:15;;;;;;;11.11;7.84;;;;;;;25.46;48.28;99324.89;370397;108;1963009;-73
2021/07/12 01:52:47;;;;;;;10.51;8.03;;;;;;;25.58;47.60;99329.85;393361;104;1987011;-72
2021/07/12 01:54:10;;;;;;;10.64;7.58;;;;;;;25.46;47.79;99333.19;346783;104;2841005;-72
2021/07/12 01:55:20;;;;;;;9.16;7.84;;;;;;;25.30;48.01;99332.73;335683;107;2689906;-72
2021/07/12 01:56:39;;;;;;;10.25;7.80;;;;;;;25.42;48.03;99332.17;394447;104;1985900;-72
2021/07/12 01:58:03;;;;;;;10.77;8.59;;;;;;;25.32;48.29;99329.63;377427;105;1961998;-72
2021/07/12 01:59:46;;;;;;;10.51;8.72;;;;;;;25.35;48.53;99327.08;320083;105;2559046;-71
2021/07/12 02:01:01;;;;;;;11.33;8.24;;;;;;;25.58;48.47;99333.43;389442;104;2073948;-74
2021/07/12 02:02:10;;;;;;;10.83;8.38;;;;;;;25.49;48.16;99338.09;374631;105;1970020;-72
2021/07/12 02:03:20;;;;;;;10.48;7.67;;;;;;;25.49;48.02;99340.86;374809;106;1961026;-73
2021/07/12 02:04:28;;;;;;;9.80;8.06;;;;;;;25.50;47.80;99336.95;375637;106;1961925;-72
2021/07/12 02:05:42;;;;;;;12.52;8.36;;;;;;;25.68;47.39;99326.03;379745;104;1985999;-72
2021/07/12 02:06:52;;;;;;;10.16;7.81;;;;;;;25.60;47.40;99338.66;376178;106;1961865;-73
2021/07/12 02:08:25;;;;;;;9.79;7.66;;;;;;;25.71;47.30;99328.97;409286;99;1986525;-74
2021/07/12 02:09:31;;;;;;;9.61;7.72;;;;;;;25.63;47.32;99322.24;395930;102;1961922;-73
2021/07/12 02:10:57;;;;;;;10.57;7.49;;;;;;;25.66;47.18;99324.38;393916;102;1962998;-73
2021/07/12 02:12:11;;;;;;;11.93;8.47;;;;;;;25.86;46.83;99327.81;397077;104;1987003;-73
2021/07/12 02:13:19;;;;;;;11.07;7.97;;;;;;;25.73;46.86;99321.18;342728;105;2643981;-72
2021/07/12 02:14:28;;;;;;;10.73;8.19;;;;;;;25.72;46.82;99319.56;378535;105;1961973;-73
2021/07/12 02:15:42;;;;;;;10.53;7.68;;;;;;;25.90;46.76;99317.73;383216;103;1972994;-72
2021/07/12 02:16:53;;;;;;;11.25;8.31;;;;;;;25.82;46.77;99322.04;330552;105;2164956;-72
2021/07/12 02:18:03;;;;;;;11.10;8.40;;;;;;;25.84;46.73;99319.81;327133;107;2801987;-72
2021/07/12 02:19:17;;;;;;;10.89;8.07;;;;;;;25.97;46.72;99326.41;386934;104;2970982;-72
2021/07/12 02:20:28;;;;;;;10.48;8.32;;;;;;;25.88;46.72;99328.32;358955;107;1961997;-74
2021/07/12 02:21:43;;;;;;;10.51;8.32;;;;;;;25.96;46.26;99326.71;391791;104;1985990;-72
2021/07/12 02:22:51;;;;;;;12.71;8.32;;;;;;;25.81;46.72;99327.91;376984;107;1963996;-71
2021/07/12 02:24:19;;;;;;;9.33;7.52;;;;;;;25.76;46.82;99326.08;376443;107;1961963;-73
2021/07/12 02:25:32;;;;;;;10.33;8.46;;;;;;;25.87;46.97;99330.24;393488;104;1990159;-73
2021/07/12 02:26:42;;;;;;;9.98;7.99;;;;;;;25.74;46.97;99327.53;376131;105;1962040;-72
2021/07/12 02:27:49;;;;;;;15.57;9.28;;;;;;;25.73;47.05;99323.95;375749;105;1961988;-72
2021/07/12 02:29:03;;;;;;;12.91;8.79;;;;;;;25.84;47.12;99324.53;395834;103;1965027;-72
2021/07/12 02:30:12;;;;;;;12.14;8.93;;;;;;;25.73;47.15;99323.95;376341;106;1962949;-72
2021/07/12 02:31:19;;;;;;;12.12;8.37;;;;;;;25.75;47.06;99323.61;376925;106;1963981;-73
2021/07/12 02:32:33;;;;;;;10.76;7.27;;;;;;;25.85;46.93;99328.92;348914;104;2875018;-73
2021/07/12 02:33:39;;;;;;;11.97;8.44;;;;;;;25.75;47.03;99326.38;378919;105;1965055;-72
2021/07/12 02:34:45;;;;;;;13.01;8.92;;;;;;;25.79;47.09;99325.44;378109;105;1961994;-73
2021/07/12 02:36:00;;;;;;;13.79;8.46;;;;;;;25.92;47.12;99312.70;328049;104;2431039;-72
2021/07/12 02:37:07;;;;;;;12.52;8.81;;;;;;;25.83;47.21;99314.58;375783;107;1970070;-72
2021/07/12 02:38:21;;;;;;;15.56;8.12;;;;;;;25.93;47.06;99317.09;336228;103;2345945;-70
2021/07/12 02:39:28;;;;;;;14.84;9.27;;;;;;;25.83;47.26;99311.81;375993;105;1961979;-72
2021/07/12 02:40:53;;;;;;;12.24;8.69;;;;;;;25.82;47.47;99318.47;358913;111;1962031;-71
2021/07/12 02:42:09;;;;;;;15.20;9.63;;;;;;;25.87;47.75;99321.13;352124;106;2650831;-73
2021/07/12 02:43:23;;;;;;;12.52;9.37;;;;;;;25.84;48.09;99317.05;363758;106;1998935;-72
2021/07/12 02:44:50;;;;;;;13.62;9.59;;;;;;;25.72;48.72;99315.95;321202;110;2154002;-73
2021/07/12 02:46:04;;;;;;;20.37;10.57;;;;;;;25.84;48.50;99322.58;343728;106;2751947;-72
2021/07/12 02:47:10;;;;;;;20.53;11.09;;;;;;;25.74;48.60;99314.50;364806;107;1962913;-73
2021/07/12 02:48:34;;;;;;;29.73;12.16;;;;;;;25.73;48.71;99318.41;341879;110;1963037;-71
2021/07/12 02:49:46;;;;;;;26.29;11.64;;;;;;;25.86;48.83;99316.74;391647;104;1962068;-72
2021/07/12 02:50:56;;;;;;;20.13;10.45;;;;;;;25.68;48.82;99315.77;355444;107;2846093;-70
2021/07/12 02:52:20;;;;;;;15.31;10.12;;;;;;;25.76;49.16;99315.02;395885;104;1986974;-71
2021/07/12 02:53:30;;;;;;;14.56;9.97;;;;;;;25.61;49.08;99321.73;361271;106;1961939;-72
2021/07/12 02:55:02;;;;;;;16.96;10.21;;;;;;;25.64;49.25;99312.83;396417;103;1987009;-72
2021/07/12 02:56:09;;;;;;;16.48;10.04;;;;;;;25.51;49.17;99310.95;372660;105;1962032;-72
2021/07/12 02:57:32;;;;;;;15.82;10.01;;;;;;;25.51;49.08;99312.87;355946;106;1961903;-72
2021/07/12 02:58:46;;;;;;;14.22;10.93;;;;;;;25.62;49.31;99304.02;394873;104;2071993;-72
2021/07/12 02:59:53;;;;;;;13.92;10.98;;;;;;;25.48;49.48;99288.61;377860;105;1962011;-71
2021/07/12 03:00:59;;;;;;;14.83;10.87;;;;;;;25.59;49.40;99304.66;366364;106;1961989;-72
2021/07/12 03:02:11;;;;;;;14.29;10.90;;;;;;;25.72;49.07;99296.58;394151;104;1985981;-73
2021/07/12 03:03:19;;;;;;;15.06;11.27;;;;;;;25.54;48.99;99293.72;373473;105;1961999;-73
2021/07/12 03:04:31;;;;;;;13.15;9.86;;;;;;;25.62;49.19;99298.49;384037;106;1961943;-72
2021/07/12 03:05:36;;;;;;;10.20;9.00;;;;;;;25.47;48.97;99293.33;366650;109;1969919;-72
2021/07/12 03:07:05;;;;;;;14.77;10.89;;;;;;;25.45;48.92;99292.82;351364;110;1960993;-72
2021/07/12 03:08:26;;;;;;;13.14;11.31;;;;;;;25.59;49.43;99290.83;365966;104;2048073;-73
2021/07/12 03:09:43;;;;;;;11.33;9.03;;;;;;;25.62;49.31;99292.96;397375;104;1985969;-73
2021/07/12 03:11:11;;;;;;;13.51;10.87;;;;;;;25.53;48.87;99296.78;338928;107;2626985;-71
2021/07/12 03:12:33;;;;;;;13.29;11.74;;;;;;;25.65;49.11;99297.86;359008;103;2133006;-72
2021/07/12 03:13:48;;;;;;;12.52;11.03;;;;;;;25.53;49.31;99297.59;350170;105;1970971;-72
2021/07/12 03:15:15;;;;;;;17.30;11.56;;;;;;;25.57;49.53;99298.62;368635;107;1962053;-71
2021/07/12 03:16:30;;;;;;;17.82;11.99;;;;;;;25.77;49.63;99293.69;377807;108;1994978;-72
2021/07/12 03:17:39;;;;;;;14.20;11.17;;;;;;;25.66;49.61;99293.95;353706;111;1963013;-72
2021/07/12 03:18:58;;;;;;;13.19;10.07;;;;;;;25.80;49.30;99290.28;396167;103;1987074;-71
2021/07/12 03:20:06;;;;;;;16.73;11.98;;;;;;;25.68;49.04;99296.41;376840;105;1961991;-72
2021/07/12 03:21:14;;;;;;;14.93;11.46;;;;;;;25.72;49.30;99291.05;346610;108;1963074;-72
2021/07/12 03:22:26;;;;;;;15.61;11.80;;;;;;;25.86;49.42;99295.42;394368;104;1987054;-73
2021/07/12 03:23:41;;;;;;;19.96;11.98;;;;;;;25.82;49.51;99302.67;371771;106;1961933;-73
2021/07/12 03:24:57;;;;;;;17.49;12.98;;;;;;;26.04;49.52;99303.83;362114;104;2097038;-72
2021/07/12 03:26:05;;;;;;;14.85;10.56;;;;;;;26.00;49.38;99292.55;355693;108;2840961;-72
2021/07/12 03:27:31;;;;;;;14.06;11.71;;;;;;;26.07;49.25;99297.66;333536;105;2776979;-73
2021/07/12 03:28:44;;;;;;;16.11;11.83;;;;;;;26.32;49.08;99296.12;377329;109;1986995;-73
2021/07/12 03:29:51;;;;;;;15.78;12.03;;;;;;;26.27;48.94;99299.84;294972;111;2385002;-73
2021/07/12 03:31:04;;;;;;;16.21;11.85;;;;;;;26.48;48.84;99300.09;393013;104;1985874;-73
2021/07/12 03:32:12;;;;;;;16.97;11.49;;;;;;;26.44;48.68;99292.77;375881;106;1962935;-73
2021/07/12 03:33:26;;;;;;;14.75;12.18;;;;;;;26.65;48.57;99301.34;399165;103;1985979;-72
2021/07/12 03:34:32;;;;;;;15.42;11.47;;;;;;;26.55;48.12;99296.90;381397;105;1961883;-72
2021/07/12 03:35:57;;;;;;;17.18;11.34;;;;;;;26.59;47.98;99302.59;374915;105;1962055;-73
2021/07/12 03:37:09;;;;;;;17.08;13.21;;;;;;;26.71;47.97;99297.27;347208;104;2280994;-73
2021/07/12 03:38:20;;;;;;;14.43;12.12;;;;;;;26.59;47.94;99295.10;337024;105;2135040;-72
2021/07/12 03:39:27;;;;;;;14.82;10.64;;;;;;;26.59;47.82;99294.29;370770;107;1962065;-72
2021/07/12 03:40:40;;;;;;;25.02;12.67;;;;;;;26.52;48.01;99292.00;358080;112;1961992;-74
2021/07/12 03:41:46;;;;;;;23.15;12.91;;;;;;;26.54;48.06;99298.02;308936;110;2549920;-73
2021/07/12 03:42:59;;;;;;;17.41;12.43;;;;;;;26.68;48.14;99295.14;398736;104;1964136;-73
2021/07/12 03:44:08;;;;;;;18.35;12.39;;;;;;;26.58;48.20;99300.98;378835;105;1970898;-72
2021/07/12 03:45:20;;;;;;;19.91;12.38;;;;;;;26.71;48.22;99288.95;395221;104;1987036;-73
2021/07/12 03:46:27;;;;;;;20.56;13.38;;;;;;;26.63;48.05;99289.75;373871;107;1961977;-73
2021/07/12 03:47:51;;;;;;;18.63;13.85;;;;;;;26.67;48.06;99293.49;377722;105;1961997;-72
2021/07/12 03:48:58;;;;;;;14.56;11.22;;;;;;;26.71;47.91;99295.30;377134;105;1961849;-74
2021/07/12 03:50:14;;;;;;;21.46;13.38;;;;;;;26.84;47.93;99298.28;391968;104;1961911;-73
2021/07/12 03:51:21;;;;;;;22.03;13.82;;;;;;;26.78;47.94;99296.78;345787;108;2865028;-72
2021/07/12 03:52:41;;;;;;;19.34;12.89;;;;;;;26.97;47.86;99302.86;394693;104;1985983;-72
2021/07/12 03:53:46;;;;;;;18.46;12.96;;;;;;;26.92;47.88;99306.59;374785;107;1964987;-74
2021/07/12 03:55:13;;;;;;;21.86;12.52;;;;;;;27.00;47.91;99307.75;372335;106;1963001;-73
2021/07/12 03:56:25;;;;;;;20.81;12.69;;;;;;;27.18;47.80;99308.63;386023;106;1986022;-73
2021/07/12 03:57:30;;;;;;;19.22;12.30;;;;;;;27.08;47.82;99312.49;368827;109;1962980;-74
2021/07/12 03:58:36;;;;;;;17.43;11.79;;;;;;;27.10;47.88;99317.73;369080;109;1962000;-73
2021/07/12 03:59:49;;;;;;;18.76;12.35;;;;;;;27.25;47.98;99317.25;345303;104;2877024;-72
2021/07/12 04:00:55;;;;;;;18.46;11.06;;;;;;;27.16;48.02;99322.77;334357;108;2094011;-73
2021/07/12 04:02:01;;;;;;;15.14;10.67;;;;;;;27.18;47.99;99311.40;367819;107;1962075;-73
2021/07/12 04:03:13;;;;;;;17.87;13.17;;;;;;;27.31;47.92;99309.59;389370;104;2074863;-73
2021/07/12 04:04:18;;;;;;;17.22;11.22;;;;;;;27.26;48.13;99299.49;375559;107;1969856;-72
2021/07/12 04:05:24;;;;;;;17.65;12.27;;;;;;;27.33;48.06;99299.80;369214;107;1964103;-73
2021/07/12 04:06:37;;;;;;;20.59;13.68;;;;;;;27.55;47.89;99309.11;338824;106;2551060;-73
2021/07/12 04:07:43;;;;;;;17.13;11.79;;;;;;;27.53;47.30;99309.43;320802;109;2228898;-72
2021/07/12 04:08:48;;;;;;;14.54;9.74;;;;;;;27.60;47.21;99309.76;319242;109;2237892;-74
2021/07/12 04:10:00;;;;;;;13.10;9.98;;;;;;;27.83;46.24;99306.80;394524;104;2072161;-73
2021/07/12 04:11:06;;;;;;;12.44;8.82;;;;;;;27.79;46.00;99306.63;374141;107;1962029;-74
2021/07/12 04:12:11;;;;;;;16.15;11.23;;;;;;;27.87;45.82;99306.98;374604;106;1962057;-73
2021/07/12 04:13:24;;;;;;;15.87;10.20;;;;;;;28.08;45.70;99301.50;393242;103;2070880;-72
2021/07/12 04:14:30;;;;;;;13.91;10.09;;;;;;;28.03;45.61;99310.84;379843;105;1962023;-73
2021/07/12 04:15:43;;;;;;;13.15;9.34;;;;;;;28.19;45.45;99309.16;390653;103;2071950;-73
2021/07/12 04:16:49;;;;;;;16.13;9.58;;;;;;;28.14;45.31;99312.11;373130;105;1969957;-73
2021/07/12 04:18:13;;;;;;;12.37;9.37;;;;;;;28.24;45.14;99311.75;307346;105;2403001;-74
2021/07/12 04:19:24;;;;;;;13.38;9.67;;;;;;;28.47;44.85;99303.18;393341;104;2072016;-73
2021/07/12 04:20:33;;;;;;;13.16;9.44;;;;;;;28.42;44.70;99306.95;374307;105;1962067;-73
2021/07/12 04:21:46;;;;;;;15.78;10.14;;;;;;;28.62;44.42;99304.59;388069;106;1985974;-73
2021/07/12 04:22:51;;;;;;;15.15;8.88;;;;;;;28.56;44.25;99305.94;368529;109;1961979;-73
2021/07/12 04:24:04;;;;;;;11.59;8.96;;;;;;;28.71;44.15;99299.78;395325;104;1986071;-73
2021/07/12 04:25:12;;;;;;;11.69;9.24;;;;;;;28.67;44.09;99294.09;378326;105;1962042;-72
2021/07/12 04:26:24;;;;;;;16.88;8.96;;;;;;;28.85;44.05;99300.37;393497;103;1986811;-73
2021/07/12 04:27:29;;;;;;;14.36;11.63;;;;;;;28.74;43.96;99289.95;373590;106;1962010;-73
2021/07/12 04:28:35;;;;;;;14.09;9.47;;;;;;;28.74;44.06;99298.30;374245;106;1962057;-73
2021/07/12 04:29:40;;;;;;;14.43;10.42;;;;;;;28.73;44.20;99294.70;372138;106;1961950;-73
2021/07/12 04:30:53;;;;;;;12.01;8.92;;;;;;;28.86;44.46;99298.39;392618;104;1985962;-73
2021/07/12 04:32:00;;;;;;;14.87;9.83;;;;;;;28.76;44.40;99301.56;375073;107;1961986;-73
2021/07/12 04:33:06;;;;;;;13.09;10.37;;;;;;;28.72;44.48;99298.65;372772;107;1962034;-72
2021/07/12 04:34:11;;;;;;;17.52;9.99;;;;;;;28.68;44.63;99301.27;375166;107;1960813;-72
2021/07/12 04:35:29;;;;;;;11.96;9.02;;;;;;;28.77;44.74;99300.43;389854;104;1986035;-72
2021/07/12 04:36:35;;;;;;;14.68;10.31;;;;;;;28.64;44.87;99299.52;356629;107;2836040;-73
2021/07/12 04:37:42;;;;;;;14.76;10.74;;;;;;;28.66;45.00;99303.59;376790;107;1962038;-74
2021/07/12 04:38:54;;;;;;;15.41;13.32;;;;;;;28.82;44.99;99300.23;398290;104;1986011;-73
2021/07/12 04:40:00;;;;;;;13.46;10.05;;;;;;;28.73;44.91;99303.05;377835;105;1961988;-72
2021/07/12 04:41:14;;;;;;;16.12;11.84;;;;;;;28.92;44.89;99302.59;330514;108;2888856;-73
2021/07/12 04:42:20;;;;;;;16.82;12.49;;;;;;;28.81;44.88;99307.73;296557;112;2403976;-73
2021/07/12 04:43:25;;;;;;;14.88;11.45;;;;;;;28.84;44.87;99303.47;361392;112;1962997;-73
2021/07/12 04:44:31;;;;;;;15.57;10.77;;;;;;;28.86;44.95;99303.95;340449;111;1966014;-73
2021/07/12 04:45:42;;;;;;;16.87;12.65;;;;;;;28.95;44.92;99296.39;379468;108;1986001;-72
2021/07/12 04:46:50;;;;;;;18.72;11.96;;;;;;;28.85;44.94;99303.15;361641;108;1960670;-74
2021/07/12 04:47:56;;;;;;;16.02;10.73;;;;;;;28.90;44.83;99311.30;363571;109;1960860;-73
2021/07/12 04:49:15;;;;;;;18.59;11.90;;;;;;;29.01;45.04;99306.15;398532;104;1984738;-73
2021/07/12 04:50:21;;;;;;;17.63;11.37;;;;;;;28.91;45.00;99304.57;376998;105;1960739;-73
2021/07/12 04:51:33;;;;;;;14.73;11.25;;;;;;;29.05;44.90;99303.53;385737;104;2070940;-80
2021/07/12 04:52:39;;;;;;;14.73;10.87;;;;;;;28.92;44.92;99297.88;351775;108;2826976;-79
2021/07/12 04:54:02;;;;;;;17.29;11.16;;;;;;;28.93;44.94;99298.69;365930;109;1960839;-79
2021/07/12 04:55:15;;;;;;;13.48;10.22;;;;;;;29.05;44.94;99303.53;391913;106;1984911;-81
2021/07/12 04:56:22;;;;;;;15.36;11.00;;;;;;;28.94;44.90;99300.30;363546;108;1961891;-80
2021/07/12 04:57:54;;;;;;;15.33;10.86;;;;;;;29.07;44.85;99306.80;415298;99;1985911;-73
2021/07/12 04:59:04;;;;;;;14.73;10.46;;;;;;;28.97;44.88;99309.94;390318;102;1962021;-73
2021/07/12 05:00:26;;;;;;;14.83;11.41;;;;;;;28.97;44.90;99305.18;390600;101;1961951;-73
2021/07/12 05:01:40;;;;;;;15.91;10.78;;;;;;;29.15;44.74;99311.47;380822;104;2849895;-73
2021/07/12 05:02:45;;;;;;;15.60;11.77;;;;;;;29.03;44.67;99314.14;371756;107;1971042;-72
2021/07/12 05:03:57;;;;;;;14.95;10.32;;;;;;;29.11;44.71;99316.91;393726;104;1987991;-73
2021/07/12 05:05:03;;;;;;;14.47;10.23;;;;;;;28.97;44.85;99313.52;375494;107;1962033;-73
2021/07/12 05:06:28;;;;;;;14.27;9.86;;;;;;;28.95;44.85;99318.63;373739;107;1964013;-73
2021/07/12 05:07:34;;;;;;;15.60;11.03;;;;;;;28.91;44.80;99317.66;375558;107;1962097;-73
2021/07/12 05:08:46;;;;;;;14.65;10.46;;;;;;;28.96;44.66;99313.88;393150;104;2076064;-74
2021/07/12 05:09:52;;;;;;;12.44;9.23;;;;;;;28.80;44.62;99320.02;378079;105;1969881;-73
2021/07/12 05:11:05;;;;;;;13.55;9.70;;;;;;;28.85;44.50;99313.45;369857;106;1973015;-74
2021/07/12 05:12:14;;;;;;;14.39;10.05;;;;;;;28.69;44.57;99314.03;365224;109;1964780;-73
2021/07/12 05:13:29;;;;;;;12.49;9.60;;;;;;;28.80;44.49;99313.65;393373;103;1986860;-73
2021/07/12 05:14:37;;;;;;;12.69;9.50;;;;;;;28.68;44.43;99326.28;375192;106;1963955;-75
2021/07/12 05:16:02;;;;;;;15.72;10.52;;;;;;;28.65;44.34;99310.28;376362;106;1962016;-74
2021/07/12 05:17:14;;;;;;;14.74;9.88;;;;;;;28.73;44.33;99321.70;372818;109;1974044;-73
2021/07/12 05:18:20;;;;;;;13.63;9.81;;;;;;;28.61;44.28;99314.09;353494;112;1963022;-73
2021/07/12 05:19:25;;;;;;;14.34;10.45;;;;;;;28.64;44.13;99313.41;356742;112;1961895;-73
2021/07/12 05:20:38;;;;;;;13.00;10.57;;;;;;;28.30;44.09;99245.72;392421;104;1986987;-73
2021/07/12 05:21:44;;;;;;;15.89;10.49;;;;;;;28.62;44.16;99305.40;375146;105;1962921;-73
2021/07/12 05:22:56;;;;;;;14.83;10.89;;;;;;;28.83;43.85;99311.00;396501;104;1961991;-73
2021/07/12 05:24:02;;;;;;;14.75;10.50;;;;;;;28.82;43.43;99316.91;373356;105;1970013;-74
2021/07/12 05:25:29;;;;;;;14.97;10.66;;;;;;;28.91;43.17;99318.47;376546;106;1962035;-74
2021/07/12 05:26:41;;;;;;;17.48;11.55;;;;;;;29.13;42.99;99317.36;393927;104;1985943;-73
2021/07/12 05:27:47;;;;;;;13.14;10.37;;;;;;;29.11;43.08;99316.91;374571;107;1962060;-73
2021/07/12 05:28:59;;;;;;;15.69;10.23;;;;;;;29.33;42.86;99321.31;384099;106;2072070;-74
2021/07/12 05:30:07;;;;;;;16.94;10.21;;;;;;;29.32;42.08;99316.91;363289;110;1962026;-74
2021/07/12 05:31:30;;;;;;;19.17;11.33;;;;;;;29.42;42.03;99310.10;359677;108;1962018;-74
2021/07/12 05:32:42;;;;;;;12.75;9.54;;;;;;;29.69;41.34;99313.49;392757;104;1986983;-72
2021/07/12 05:33:47;;;;;;;16.71;11.40;;;;;;;29.64;40.98;99316.45;374245;107;1962002;-74
2021/07/12 05:34:52;;;;;;;15.00;9.70;;;;;;;29.74;40.89;99316.06;375633;106;1962027;-74